createdAt,value
2022-10-11T00:00:09.130Z,100055.06
2022-10-11T00:02:35.597Z,100054.66
2022-10-11T00:05:02.127Z,100062.13
2022-10-11T00:07:28.622Z,100066.44
2022-10-11T00:09:55.398Z,100061.41
2022-10-11T00:12:21.897Z,100064.56
2022-10-11T00:14:48.501Z,100064.34
2022-10-11T00:17:14.976Z,100062.53
2022-10-11T00:19:41.623Z,100067.34
2022-10-11T00:22:08.036Z,100067.97
2022-10-11T00:24:34.672Z,100068.22
2022-10-11T00:27:01.197Z,100075.47
2022-10-11T00:29:27.787Z,100071.31
2022-10-11T00:31:54.246Z,100075.91
2022-10-11T00:34:20.890Z,100080.06
2022-10-11T00:36:47.298Z,100078.38
2022-10-11T00:39:14.596Z,100080.91
2022-10-11T00:41:41.667Z,100084.66
2022-10-11T00:44:21.182Z,100085.72
2022-10-11T00:47:01.302Z,100088.72
2022-10-11T00:49:36.471Z,100092.44
2022-10-11T00:52:06.832Z,100091.78
2022-10-11T00:54:39.210Z,100090.72
2022-10-11T00:57:09.893Z,100089.22
2022-10-11T00:59:46.620Z,100090.38
2022-10-11T01:02:14.664Z,100097.00
2022-10-11T01:04:41.759Z,100090.84
2022-10-11T01:07:09.565Z,100095.00
2022-10-11T01:09:36.326Z,100083.22
2022-10-11T01:12:06.746Z,100085.25
2022-10-11T01:14:45.381Z,100089.28
2022-10-11T01:17:20.476Z,100089.56
2022-10-11T01:20:22.496Z,100084.66
2022-10-11T01:23:15.393Z,100090.78
2022-10-11T01:25:51.031Z,100089.16
2022-10-11T01:28:34.954Z,100084.13
2022-10-11T01:31:08.800Z,100093.19
2022-10-11T01:33:55.984Z,100083.69
2022-10-11T01:36:36.353Z,100087.19
2022-10-11T01:39:10.371Z,100090.63
2022-10-11T01:41:44.001Z,100093.66
2022-10-11T01:44:13.623Z,100101.97
2022-10-11T01:46:41.337Z,100109.41
2022-10-11T01:49:08.297Z,100114.94
2022-10-11T01:51:42.958Z,100115.19
2022-10-11T01:54:56.514Z,100114.50
2022-10-11T01:57:36.184Z,100117.03
2022-10-11T02:00:29.243Z,100115.38
2022-10-11T02:03:27.129Z,100115.66
2022-10-11T02:06:09.852Z,100109.69
2022-10-11T02:08:39.058Z,100116.44
2022-10-11T02:11:29.591Z,100114.31
2022-10-11T02:14:11.590Z,100120.81
2022-10-11T02:16:49.269Z,100128.41
2022-10-11T02:19:19.666Z,100124.81
2022-10-11T02:21:52.719Z,100126.13
2022-10-11T02:24:27.293Z,100113.00
2022-10-11T02:26:56.803Z,100119.16
2022-10-11T02:29:26.754Z,100118.69
2022-10-11T02:31:56.608Z,100122.09
2022-10-11T02:34:31.264Z,100128.97
2022-10-11T02:37:08.815Z,100132.75
2022-10-11T02:39:47.843Z,100125.81
2022-10-11T02:42:19.055Z,100122.31
2022-10-11T02:44:53.637Z,100134.66
2022-10-11T02:47:20.071Z,100133.97
2022-10-11T02:49:46.630Z,100141.31
2022-10-11T02:52:14.385Z,100133.56
2022-10-11T02:54:40.863Z,100145.47
2022-10-11T02:57:19.259Z,100144.03
2022-10-11T02:59:45.712Z,100145.94
2022-10-11T03:02:12.529Z,100145.06
2022-10-11T03:04:39.005Z,100149.63
2022-10-11T03:07:05.615Z,100158.19
2022-10-11T03:09:35.436Z,100149.84
2022-10-11T03:12:13.995Z,100158.78
2022-10-11T03:18:40.972Z,100157.84
2022-10-11T03:21:07.642Z,100158.94
2022-10-11T03:23:34.511Z,100160.34
2022-10-11T03:26:01.320Z,100166.19
2022-10-11T03:28:34.677Z,100163.25
2022-10-11T03:31:03.866Z,100165.59
2022-10-11T03:33:42.029Z,100163.59
2022-10-11T03:36:25.495Z,100174.19
2022-10-11T03:38:57.150Z,100173.91
2022-10-11T03:41:28.206Z,100172.97
2022-10-11T03:55:31.373Z,100190.13
2022-10-11T03:58:25.825Z,100189.84
2022-10-11T05:02:56.053Z,100241.97
2022-10-11T05:05:22.588Z,100240.81
2022-10-11T05:07:52.158Z,100230.66
2022-10-11T05:10:45.077Z,100230.28
2022-10-11T05:16:31.404Z,100242.91
2022-10-11T05:18:57.845Z,100242.38
2022-10-11T05:21:26.771Z,100246.22
2022-10-11T05:23:55.805Z,100250.53
2022-10-11T05:26:23.278Z,100251.91
2022-10-11T05:28:50.071Z,100250.53
2022-10-11T05:31:17.466Z,100245.38
2022-10-11T05:33:43.965Z,100253.31
2022-10-11T05:36:11.541Z,100259.19
2022-10-11T05:38:38.936Z,100264.22
2022-10-11T05:41:06.403Z,100258.66
2022-10-11T05:43:32.873Z,100261.34
2022-10-11T05:45:59.335Z,100264.66
2022-10-11T05:48:26.701Z,100282.22
2022-10-11T05:50:53.539Z,100276.63
2022-10-11T05:53:19.960Z,100280.00
2022-10-11T05:55:48.857Z,100282.44
2022-10-11T05:58:17.214Z,100283.06
2022-10-11T06:00:43.603Z,100279.91
2022-10-11T06:03:12.555Z,100284.16
2022-10-11T06:05:41.034Z,100287.81
2022-10-11T06:08:09.813Z,100294.00
2022-10-11T06:10:38.118Z,100294.00
2022-10-11T06:13:05.335Z,100301.72
2022-10-11T06:15:32.227Z,100300.97
2022-10-11T06:17:59.255Z,100307.28
2022-10-11T06:20:26.896Z,100302.03
2022-10-11T06:22:53.435Z,100312.41
2022-10-11T06:25:20.077Z,100317.78
2022-10-11T06:27:46.517Z,100316.03
2022-10-11T06:30:14.120Z,100325.25
2022-10-11T06:32:40.508Z,100322.47
2022-10-11T06:35:07.548Z,100323.00
2022-10-11T06:37:34.030Z,100322.13
2022-10-11T06:40:03.353Z,100331.88
2022-10-11T06:42:29.764Z,100332.97
2022-10-11T06:44:56.346Z,100327.09
2022-10-11T06:47:22.765Z,100334.06
2022-10-11T06:49:49.369Z,100331.38
2022-10-11T06:52:15.841Z,100337.28
2022-10-11T06:54:44.870Z,100334.06
2022-10-11T06:57:11.824Z,100341.03
2022-10-11T06:59:38.446Z,100342.72
2022-10-11T07:02:05.010Z,100340.06
2022-10-11T07:04:33.646Z,100343.06
2022-10-11T07:07:00.163Z,100351.25
2022-10-11T07:09:26.580Z,100359.28
2022-10-11T07:11:53.166Z,100353.81
2022-10-11T07:14:19.651Z,100361.63
2022-10-11T07:16:46.164Z,100364.97
2022-10-11T07:19:12.578Z,100357.47
2022-10-11T07:21:38.975Z,100365.78
2022-10-11T07:24:05.822Z,100368.69
2022-10-11T07:26:38.350Z,100368.16
2022-10-11T07:29:06.372Z,100373.28
2022-10-11T07:31:32.882Z,100376.47
2022-10-11T07:33:59.328Z,100379.03
2022-10-11T07:36:25.901Z,100375.66
2022-10-11T07:38:52.475Z,100376.19
2022-10-11T07:41:19.693Z,100383.59
2022-10-11T07:43:49.391Z,100384.66
2022-10-11T07:46:17.028Z,100375.53
2022-10-11T07:48:43.468Z,100381.53
2022-10-11T07:51:12.923Z,100377.13
2022-10-11T07:53:47.541Z,100387.22
2022-10-11T07:56:17.281Z,100383.69
2022-10-11T07:58:44.191Z,100383.69
2022-10-11T08:01:11.570Z,100381.63
2022-10-11T08:03:38.511Z,100386.22
2022-10-11T08:06:08.059Z,100390.53
2022-10-11T08:08:35.633Z,100394.41
2022-10-11T08:11:02.219Z,100396.22
2022-10-11T08:13:28.582Z,100393.22
2022-10-11T08:15:54.951Z,100393.41
2022-10-11T08:18:21.553Z,100399.53
2022-10-11T08:20:47.972Z,100400.59
2022-10-11T08:23:16.101Z,100401.56
2022-10-11T08:25:44.827Z,100399.63
2022-10-11T08:28:17.428Z,100402.97
2022-10-11T08:30:49.311Z,100403.19
2022-10-11T08:33:17.125Z,100405.41
2022-10-11T08:35:43.577Z,100405.75
2022-10-11T08:38:10.056Z,100401.97
2022-10-11T08:40:36.567Z,100399.19
2022-10-11T08:43:24.027Z,100406.63
2022-10-11T08:45:54.394Z,100404.38
2022-10-11T08:48:26.016Z,100406.25
2022-10-11T08:50:54.326Z,100399.53
2022-10-11T08:53:32.683Z,100394.22
2022-10-11T08:55:59.213Z,100393.94
2022-10-11T08:58:39.637Z,100394.19
2022-10-11T09:01:13.074Z,100387.91
2022-10-11T09:03:42.772Z,100391.03
2022-10-11T09:06:21.593Z,100386.03
2022-10-11T09:08:57.439Z,100381.91
2022-10-11T09:11:32.755Z,100372.31
2022-10-11T09:14:14.281Z,100374.84
2022-10-11T09:17:01.482Z,100368.16
2022-10-11T09:19:30.882Z,100370.84
2022-10-11T09:22:13.804Z,100376.66
2022-10-11T09:24:49.055Z,100379.47
2022-10-11T09:27:25.919Z,100375.22
2022-10-11T09:30:15.781Z,100380.69
2022-10-11T09:32:46.227Z,100378.47
2022-10-11T09:35:15.523Z,100372.50
2022-10-11T09:37:54.002Z,100388.03
2022-10-11T09:40:43.339Z,100380.91
2022-10-11T09:43:10.018Z,100378.88
2022-10-11T09:45:36.554Z,100369.38
2022-10-11T09:48:06.634Z,100378.06
2022-10-11T09:50:33.381Z,100367.44
2022-10-11T09:53:07.603Z,100366.31
2022-10-11T09:55:43.285Z,100361.72
2022-10-11T09:58:30.028Z,100362.66
2022-10-11T10:01:02.777Z,100365.25
2022-10-11T10:03:39.059Z,100370.09
2022-10-11T10:06:15.511Z,100367.44
2022-10-11T10:08:43.067Z,100361.34
2022-10-11T10:11:11.430Z,100365.59
2022-10-11T10:13:51.558Z,100356.09
2022-10-11T10:16:22.701Z,100354.00
2022-10-11T10:18:56.627Z,100365.72
2022-10-11T10:21:27.706Z,100362.44
2022-10-11T10:23:55.526Z,100358.03
2022-10-11T10:26:25.466Z,100362.28
2022-10-11T10:29:08.986Z,100353.72
2022-10-11T10:32:09.293Z,100358.38
2022-10-11T10:34:37.059Z,100356.41
2022-10-11T10:37:19.650Z,100349.13
2022-10-11T10:40:02.237Z,100360.72
2022-10-11T10:42:28.837Z,100356.06
2022-10-11T10:44:59.153Z,100359.81
2022-10-11T10:47:42.360Z,100354.69
2022-10-11T10:50:21.349Z,100354.81
2022-10-11T10:53:22.993Z,100351.75
2022-10-11T10:56:01.436Z,100354.56
2022-10-11T10:58:50.855Z,100354.69
2022-10-11T11:01:30.498Z,100357.56
2022-10-11T11:04:07.597Z,100351.72
2022-10-11T11:07:12.845Z,100334.19
2022-10-11T11:09:55.583Z,100331.50
2022-10-11T11:12:47.683Z,100331.25
2022-10-11T11:15:31.265Z,100313.38
2022-10-11T11:18:36.366Z,100320.47
2022-10-11T11:21:16.148Z,100315.09
2022-10-11T11:24:05.572Z,100317.00
2022-10-11T11:26:44.235Z,100312.28
2022-10-11T11:29:27.130Z,100309.66
2022-10-11T11:32:28.678Z,100305.44
2022-10-11T11:35:01.186Z,100297.84
2022-10-11T11:37:34.267Z,100291.09
2022-10-11T11:40:39.275Z,100285.22
2022-10-11T11:43:21.719Z,100285.81
2022-10-11T11:45:53.608Z,100284.72
2022-10-11T11:48:24.661Z,100283.75
2022-10-11T11:51:02.378Z,100279.44
2022-10-11T11:53:41.314Z,100276.88
2022-10-11T11:56:31.653Z,100290.94
2022-10-11T11:59:06.713Z,100282.69
2022-10-11T12:01:38.071Z,100277.41
2022-10-11T12:04:12.490Z,100275.38
2022-10-11T12:06:52.441Z,100271.31
2022-10-11T12:09:26.768Z,100270.19
2022-10-11T12:12:03.740Z,100267.16
2022-10-11T12:14:32.946Z,100256.13
2022-10-11T12:17:13.526Z,100259.25
2022-10-11T12:19:43.751Z,100252.75
2022-10-11T12:22:28.242Z,100257.59
2022-10-11T12:25:14.973Z,100249.69
2022-10-11T12:27:47.188Z,100246.81
2022-10-11T12:30:44.368Z,100248.53
2022-10-11T12:33:24.658Z,100241.72
2022-10-11T12:35:53.731Z,100238.63
2022-10-11T12:38:35.418Z,100247.09
2022-10-11T12:41:38.713Z,100245.13
2022-10-11T12:44:26.231Z,100235.03
2022-10-11T12:46:55.975Z,100231.19
2022-10-11T12:49:32.124Z,100223.66
2022-10-11T12:52:28.297Z,100220.56
2022-10-11T12:55:17.843Z,100218.47
2022-10-11T12:58:21.774Z,100219.03
2022-10-11T13:00:51.562Z,100213.22
2022-10-11T13:03:34.587Z,100211.06
2022-10-11T13:06:11.478Z,100212.38
2022-10-11T13:08:43.117Z,100204.81
2022-10-11T13:11:19.296Z,100202.69
2022-10-11T13:14:23.012Z,100196.63
2022-10-11T13:17:04.561Z,100193.78
2022-10-11T13:19:33.636Z,100187.81
2022-10-11T13:22:03.352Z,100185.94
2022-10-11T13:24:39.894Z,100177.97
2022-10-11T13:27:07.466Z,100173.97
2022-10-11T13:29:37.980Z,100179.22
2022-10-11T13:32:18.177Z,100185.19
2022-10-11T13:34:47.672Z,100175.28
2022-10-11T13:37:23.734Z,100180.84
2022-10-11T13:39:55.322Z,100178.41
2022-10-11T13:42:28.543Z,100174.25
2022-10-11T13:44:55.424Z,100175.91
2022-10-11T13:47:28.080Z,100175.34
2022-10-11T13:50:10.756Z,100170.50
2022-10-11T13:52:52.480Z,100170.88
2022-10-11T13:55:29.615Z,100166.31
2022-10-11T13:58:00.049Z,100169.16
2022-10-11T14:00:28.865Z,100162.56
2022-10-11T14:03:12.763Z,100166.66
2022-10-11T14:05:44.950Z,100166.25
2022-10-11T14:08:30.175Z,100161.69
2022-10-11T14:10:59.384Z,100162.00
2022-10-11T14:13:42.495Z,100161.16
2022-10-11T14:16:28.255Z,100157.84
2022-10-11T14:19:00.311Z,100165.34
2022-10-11T14:21:29.187Z,100158.44
2022-10-11T14:24:05.243Z,100161.25
2022-10-11T14:26:35.176Z,100154.44
2022-10-11T14:29:06.686Z,100156.06
2022-10-11T14:31:34.303Z,100147.59
2022-10-11T14:34:03.875Z,100155.66
2022-10-11T14:36:30.286Z,100148.41
2022-10-11T14:38:56.699Z,100139.56
2022-10-11T14:41:23.283Z,100147.78
2022-10-11T14:43:49.734Z,100143.41
2022-10-11T14:46:24.790Z,100142.97
2022-10-11T14:48:55.437Z,100147.91
2022-10-11T14:51:27.433Z,100143.88
2022-10-11T14:53:54.058Z,100149.41
2022-10-11T14:56:21.741Z,100148.56
2022-10-11T14:58:48.445Z,100140.34
2022-10-11T15:01:16.538Z,100139.59
2022-10-11T15:03:43.407Z,100136.19
2022-10-11T15:06:32.593Z,100134.06
2022-10-11T15:08:58.976Z,100137.03
2022-10-11T15:11:26.147Z,100133.50
2022-10-11T15:13:52.461Z,100141.47
2022-10-11T15:16:20.676Z,100131.63
2022-10-11T15:18:50.821Z,100129.09
2022-10-11T15:21:23.308Z,100132.22
2022-10-11T15:23:51.411Z,100137.78
2022-10-11T15:26:23.942Z,100132.88
2022-10-11T15:28:50.817Z,100131.16
2022-10-11T15:31:18.079Z,100131.00
2022-10-11T15:33:44.472Z,100129.59
2022-10-11T15:36:22.346Z,100132.44
2022-10-11T15:38:49.355Z,100125.63
2022-10-11T15:41:18.719Z,100127.63
2022-10-11T15:43:46.547Z,100131.63
2022-10-11T15:46:15.889Z,100126.50
2022-10-11T15:48:42.212Z,100126.09
2022-10-11T15:51:08.667Z,100134.03
2022-10-11T15:53:36.648Z,100131.03
2022-10-11T15:56:06.935Z,100130.72
2022-10-11T15:58:39.193Z,100131.47
2022-10-11T16:01:09.338Z,100128.06
2022-10-11T16:03:36.115Z,100130.44
2022-10-11T16:06:05.262Z,100138.09
2022-10-11T16:08:33.812Z,100144.88
2022-10-11T16:11:00.290Z,100149.91
2022-10-11T16:13:26.730Z,100148.44
2022-10-11T16:15:53.183Z,100147.09
2022-10-11T16:18:20.984Z,100145.38
2022-10-11T16:20:49.980Z,100148.38
2022-10-11T16:23:16.825Z,100147.88
2022-10-11T16:25:43.347Z,100151.66
2022-10-11T16:28:10.279Z,100151.78
2022-10-11T16:30:45.096Z,100159.16
2022-10-11T16:33:11.434Z,100165.94
2022-10-11T16:35:41.503Z,100166.34
2022-10-11T16:38:08.306Z,100166.38
2022-10-11T16:40:36.029Z,100169.94
2022-10-11T16:43:07.397Z,100177.03
2022-10-11T16:45:35.278Z,100174.06
2022-10-11T16:48:01.856Z,100172.25
2022-10-11T16:50:28.979Z,100183.31
2022-10-11T16:52:55.438Z,100180.84
2022-10-11T16:55:22.633Z,100188.16
2022-10-11T16:57:48.996Z,100180.91
2022-10-11T17:00:16.384Z,100189.66
2022-10-11T17:02:42.762Z,100184.13
2022-10-11T17:05:09.232Z,100187.84
2022-10-11T17:07:35.691Z,100188.09
2022-10-11T17:10:02.082Z,100195.44
2022-10-11T17:12:28.455Z,100186.72
2022-10-11T17:14:55.273Z,100201.53
2022-10-11T17:17:21.886Z,100198.53
2022-10-11T17:19:48.319Z,100197.41
2022-10-11T17:22:18.035Z,100196.44
2022-10-11T17:24:44.563Z,100197.94
2022-10-11T17:27:11.103Z,100206.28
2022-10-11T17:29:37.609Z,100201.28
2022-10-11T17:32:04.785Z,100208.88
2022-10-11T17:34:31.240Z,100203.00
2022-10-11T17:36:57.579Z,100199.47
2022-10-11T17:39:25.661Z,100202.06
2022-10-11T17:41:52.663Z,100204.72
2022-10-11T17:44:19.602Z,100208.47
2022-10-11T17:46:46.305Z,100213.47
2022-10-11T17:49:12.878Z,100214.63
2022-10-11T17:51:40.336Z,100209.72
2022-10-11T17:54:12.076Z,100211.41
2022-10-11T17:56:40.037Z,100206.31
2022-10-11T17:59:07.629Z,100206.69
2022-10-11T18:01:34.294Z,100209.81
2022-10-11T18:04:04.107Z,100212.22
2022-10-11T18:06:34.178Z,100204.72
2022-10-11T18:09:01.908Z,100216.03
2022-10-11T18:11:28.871Z,100207.66
2022-10-11T18:13:55.549Z,100213.41
2022-10-11T18:16:35.387Z,100216.56
2022-10-11T18:19:04.170Z,100214.31
2022-10-11T18:21:34.360Z,100215.16
2022-10-11T18:24:03.363Z,100210.59
2022-10-11T18:26:30.879Z,100213.94
2022-10-11T18:28:57.688Z,100212.41
2022-10-11T18:31:27.570Z,100211.00
2022-10-11T18:33:54.521Z,100205.88
2022-10-11T18:36:24.584Z,100205.50
2022-10-11T18:39:02.343Z,100211.81
2022-10-11T18:41:31.851Z,100203.13
2022-10-11T18:44:01.487Z,100207.81
2022-10-11T18:46:28.729Z,100198.38
2022-10-11T18:48:56.857Z,100196.69
2022-10-11T18:51:26.068Z,100202.00
2022-10-11T18:53:53.733Z,100201.25
2022-10-11T18:56:23.802Z,100198.69
2022-10-11T18:58:52.241Z,100199.34
2022-10-11T19:01:24.617Z,100202.31
2022-10-11T19:03:53.562Z,100202.13
2022-10-11T19:06:22.403Z,100195.84
2022-10-11T19:09:21.524Z,100192.63
2022-10-11T19:11:55.033Z,100190.88
2022-10-11T19:14:28.564Z,100191.06
2022-10-11T19:16:56.008Z,100193.94
2022-10-11T19:19:25.522Z,100191.28
2022-10-11T19:21:52.389Z,100202.31
2022-10-11T19:24:22.128Z,100202.47
2022-10-11T19:26:49.330Z,100198.84
2022-10-11T19:29:21.262Z,100202.56
2022-10-11T19:31:50.303Z,100204.56
2022-10-11T19:34:16.967Z,100207.78
2022-10-11T19:36:43.851Z,100198.16
2022-10-11T19:39:12.290Z,100204.44
2022-10-11T19:41:38.859Z,100208.22
2022-10-11T19:44:05.247Z,100208.31
2022-10-11T19:46:50.261Z,100214.78
2022-10-11T19:49:20.307Z,100214.97
2022-10-11T19:51:46.844Z,100211.56
2022-10-11T19:54:14.687Z,100206.97
2022-10-11T19:56:42.666Z,100210.69
2022-10-11T19:59:10.928Z,100215.34
2022-10-11T20:01:37.852Z,100215.72
2022-10-11T20:04:22.655Z,100214.19
2022-10-11T20:06:56.795Z,100221.41
2022-10-11T20:09:31.126Z,100216.25
2022-10-11T20:11:57.894Z,100220.91
2022-10-11T20:14:24.460Z,100227.09
2022-10-11T20:16:51.279Z,100225.38
2022-10-11T20:19:18.577Z,100221.84
2022-10-11T20:21:45.306Z,100226.50
2022-10-11T20:24:12.352Z,100227.63
2022-10-11T20:26:39.162Z,100223.00
2022-10-11T20:29:05.670Z,100227.44
2022-10-11T20:31:33.840Z,100219.44
2022-10-11T20:34:04.089Z,100217.84
2022-10-11T20:36:31.602Z,100216.78
2022-10-11T20:38:59.672Z,100218.50
2022-10-11T20:41:28.835Z,100216.13
2022-10-11T20:43:57.497Z,100206.84
2022-10-11T20:46:26.898Z,100204.75
2022-10-11T20:49:02.438Z,100211.53
2022-10-11T20:51:30.918Z,100210.78
2022-10-11T20:53:58.545Z,100204.94
2022-10-11T20:56:25.033Z,100198.16
2022-10-11T20:58:52.650Z,100206.94
2022-10-11T21:01:22.134Z,100214.72
2022-10-11T21:03:48.728Z,100204.84
2022-10-11T21:06:15.180Z,100207.53
2022-10-11T21:08:41.588Z,100210.19
2022-10-11T21:11:09.241Z,100205.97
2022-10-11T21:13:36.462Z,100203.47
2022-10-11T21:16:05.150Z,100205.38
2022-10-11T21:18:31.470Z,100198.34
2022-10-11T21:20:57.883Z,100198.50
2022-10-11T21:23:24.241Z,100197.59
2022-10-11T21:25:50.599Z,100190.44
2022-10-11T21:28:16.975Z,100193.13
2022-10-11T21:30:43.314Z,100197.75
2022-10-11T21:33:09.658Z,100204.00
2022-10-11T21:35:39.043Z,100204.38
2022-10-11T21:38:05.402Z,100207.09
2022-10-11T21:40:31.754Z,100206.31
2022-10-11T21:42:58.143Z,100202.03
2022-10-11T21:45:24.463Z,100203.06
2022-10-11T21:47:50.929Z,100205.91
2022-10-11T21:50:17.434Z,100204.34
2022-10-11T21:52:43.774Z,100211.63
2022-10-11T21:55:10.474Z,100205.56
2022-10-11T21:57:36.886Z,100206.47
2022-10-11T22:00:06.331Z,100207.59
2022-10-11T22:02:32.947Z,100209.66
2022-10-11T22:04:59.491Z,100199.25
2022-10-11T22:07:25.915Z,100193.88
2022-10-11T22:09:52.332Z,100203.50
2022-10-11T22:12:18.652Z,100203.28
2022-10-11T22:14:44.986Z,100191.91
2022-10-11T22:17:11.377Z,100198.19
2022-10-11T22:19:37.719Z,100206.22
2022-10-11T22:22:04.350Z,100205.47
2022-10-11T22:24:30.684Z,100200.22
2022-10-11T22:26:57.156Z,100205.00
2022-10-11T22:29:23.637Z,100207.66
2022-10-11T22:31:49.991Z,100194.63
2022-10-11T22:34:16.371Z,100193.94
2022-10-11T22:36:42.873Z,100202.16
2022-10-11T22:39:10.038Z,100202.56
2022-10-11T22:41:37.407Z,100208.19
2022-10-11T22:44:04.918Z,100196.81
2022-10-11T22:46:31.326Z,100197.56
2022-10-11T22:48:57.671Z,100200.38
2022-10-11T22:51:24.129Z,100203.75
2022-10-11T22:53:50.533Z,100198.44
2022-10-11T22:56:16.938Z,100199.47
2022-10-11T22:58:43.394Z,100197.03
2022-10-11T23:01:11.993Z,100198.78
2022-10-11T23:03:38.500Z,100198.94
2022-10-11T23:06:05.440Z,100199.97
2022-10-11T23:08:32.090Z,100203.53
2022-10-11T23:11:03.806Z,100205.28
2022-10-11T23:13:30.151Z,100208.69
2022-10-11T23:15:56.506Z,100207.06
2022-10-11T23:18:22.859Z,100209.81
2022-10-11T23:20:49.218Z,100208.09
2022-10-11T23:23:15.555Z,100206.44
2022-10-11T23:25:41.903Z,100203.88
2022-10-11T23:28:08.264Z,100199.72
2022-10-11T23:30:34.684Z,100204.13
2022-10-11T23:33:01.059Z,100203.16
2022-10-11T23:35:27.406Z,100202.31
2022-10-11T23:37:54.719Z,100207.53
2022-10-11T23:40:21.169Z,100194.25
2022-10-11T23:42:47.595Z,100198.72
2022-10-11T23:45:14.015Z,100206.00
2022-10-11T23:47:40.680Z,100200.91
2022-10-11T23:50:08.006Z,100217.16
2022-10-11T23:52:34.467Z,100213.81
2022-10-11T23:55:00.823Z,100216.53
2022-10-11T23:57:27.176Z,100207.56
2022-10-11T23:59:53.521Z,100211.41
